createdAt,value
2023-05-15T00:00:18.006Z,49.52
2023-05-15T00:02:48.181Z,49.35
2023-05-15T00:05:18.219Z,49.32
2023-05-15T00:07:47.724Z,49.22
2023-05-15T00:10:17.655Z,49.24
2023-05-15T00:12:47.718Z,49.11
2023-05-15T00:15:25.928Z,49.06
2023-05-15T00:17:56.059Z,48.92
2023-05-15T00:20:26.156Z,48.76
2023-05-15T00:22:55.772Z,48.75
2023-05-15T00:25:25.496Z,48.67
2023-05-15T00:27:55.363Z,48.50
2023-05-15T00:30:23.821Z,48.32
2023-05-15T00:32:53.098Z,48.18
2023-05-15T00:35:22.092Z,48.00
2023-05-15T00:37:56.508Z,47.85
2023-05-15T00:40:27.972Z,47.87
2023-05-15T00:42:57.887Z,47.77
2023-05-15T00:45:27.569Z,47.76
2023-05-15T00:48:00.504Z,47.60
2023-05-15T00:50:31.159Z,47.50
2023-05-15T00:53:01.527Z,48.26
2023-05-15T00:55:35.151Z,47.71
2023-05-15T00:58:04.817Z,47.43
2023-05-15T01:00:35.316Z,47.35
2023-05-15T01:03:06.857Z,47.30
2023-05-15T01:05:36.870Z,47.09
2023-05-15T01:08:09.340Z,47.10
2023-05-15T01:10:40.050Z,46.97
2023-05-15T01:13:10.806Z,46.95
2023-05-15T01:15:43.421Z,46.94
2023-05-15T01:18:15.264Z,46.71
2023-05-15T01:21:04.397Z,46.77
2023-05-15T01:24:03.513Z,47.01
2023-05-15T01:26:53.244Z,46.76
2023-05-15T01:29:26.908Z,46.73
2023-05-15T01:32:00.890Z,46.61
2023-05-15T01:34:42.213Z,46.49
2023-05-15T01:37:17.153Z,46.44
2023-05-15T01:39:51.224Z,46.42
2023-05-15T01:42:29.088Z,46.41
2023-05-15T01:44:59.128Z,46.14
2023-05-15T01:47:40.558Z,46.14
2023-05-15T01:50:14.962Z,46.10
2023-05-15T01:52:52.289Z,46.00
2023-05-15T01:55:23.552Z,46.00
2023-05-15T01:57:53.701Z,46.17
2023-05-15T02:00:23.645Z,45.93
2023-05-15T02:02:54.527Z,45.70
2023-05-15T02:05:25.125Z,45.63
2023-05-15T02:07:54.950Z,45.55
2023-05-15T02:10:26.393Z,45.63
2023-05-15T02:12:58.254Z,45.79
2023-05-15T02:15:29.957Z,45.33
2023-05-15T02:18:00.666Z,45.21
2023-05-15T02:20:31.413Z,45.70
2023-05-15T02:23:00.701Z,45.34
2023-05-15T02:25:45.260Z,45.66
2023-05-15T02:28:25.892Z,45.46
2023-05-15T02:30:59.555Z,45.25
2023-05-15T02:33:39.582Z,45.36
2023-05-15T02:36:10.997Z,45.22
2023-05-15T02:38:48.063Z,45.51
2023-05-15T02:41:18.245Z,45.37
2023-05-15T02:43:51.306Z,45.42
2023-05-15T02:46:23.363Z,45.51
2023-05-15T02:48:53.471Z,44.81
2023-05-15T02:51:22.918Z,44.20
2023-05-15T02:53:54.109Z,44.50
2023-05-15T02:56:23.435Z,45.15
2023-05-15T02:58:55.277Z,44.61
2023-05-15T03:01:24.182Z,44.40
2023-05-15T03:03:53.508Z,44.56
2023-05-15T03:06:23.248Z,44.69
2023-05-15T03:08:53.761Z,44.54
2023-05-15T03:11:23.219Z,44.13
2023-05-15T03:13:52.826Z,43.90
2023-05-15T03:16:21.502Z,43.79
2023-05-15T03:18:50.243Z,43.63
2023-05-15T03:21:20.591Z,43.73
2023-05-15T03:23:51.591Z,43.72
2023-05-15T03:26:21.257Z,43.57
2023-05-15T03:28:50.499Z,43.48
2023-05-15T03:31:19.725Z,43.86
2023-05-15T03:33:50.480Z,44.29
2023-05-15T03:36:23.568Z,43.93
2023-05-15T03:38:53.884Z,43.82
2023-05-15T03:41:23.235Z,43.67
2023-05-15T03:43:51.877Z,43.65
2023-05-15T03:46:21.612Z,43.46
2023-05-15T03:48:51.507Z,43.63
2023-05-15T03:51:21.912Z,43.78
2023-05-15T03:53:55.701Z,43.52
2023-05-15T03:56:25.405Z,43.32
2023-05-15T03:58:57.827Z,43.32
2023-05-15T04:01:27.618Z,43.24
2023-05-15T04:03:56.702Z,43.13
2023-05-15T04:06:28.049Z,43.10
2023-05-15T04:08:58.051Z,42.96
2023-05-15T04:11:29.267Z,42.77
2023-05-15T04:14:29.885Z,43.12
2023-05-15T04:17:41.647Z,42.99
2023-05-15T04:20:41.063Z,42.82
2023-05-15T04:23:21.194Z,42.57
2023-05-15T04:25:57.714Z,42.50
2023-05-15T04:28:31.057Z,42.43
2023-05-15T04:31:05.505Z,42.34
2023-05-15T04:33:40.994Z,42.27
2023-05-15T04:36:14.019Z,42.18
2023-05-15T04:38:57.555Z,42.32
2023-05-15T04:41:34.897Z,42.25
2023-05-15T04:44:16.923Z,42.20
2023-05-15T04:46:54.637Z,42.26
2023-05-15T04:49:24.731Z,42.12
2023-05-15T04:51:54.895Z,41.93
2023-05-15T04:54:35.700Z,41.87
2023-05-15T04:57:13.151Z,41.86
2023-05-15T04:59:52.537Z,41.83
2023-05-15T05:02:33.834Z,41.87
2023-05-15T05:05:12.626Z,41.82
2023-05-15T05:07:54.680Z,41.76
2023-05-15T05:10:25.514Z,41.69
2023-05-15T05:13:00.806Z,41.69
2023-05-15T05:15:39.359Z,41.55
2023-05-15T05:18:13.553Z,41.47
2023-05-15T05:20:57.321Z,41.56
2023-05-15T05:23:33.301Z,41.56
2023-05-15T05:26:09.607Z,41.33
2023-05-15T05:28:41.437Z,41.27
2023-05-15T05:31:18.151Z,41.36
2023-05-15T05:34:04.173Z,41.27
2023-05-15T05:36:43.904Z,41.37
2023-05-15T05:39:29.063Z,41.19
2023-05-15T05:42:00.742Z,41.49
2023-05-15T05:44:34.412Z,41.17
2023-05-15T05:47:07.113Z,41.06
2023-05-15T05:49:52.441Z,40.93
2023-05-15T05:52:25.946Z,40.90
2023-05-15T05:55:00.905Z,40.94
2023-05-15T05:57:37.350Z,41.49
2023-05-15T06:00:22.270Z,41.62
2023-05-15T06:03:04.676Z,43.42
2023-05-15T06:06:01.953Z,42.28
2023-05-15T06:08:42.681Z,41.50
2023-05-15T06:11:51.216Z,41.47
2023-05-15T06:14:47.143Z,41.63
2023-05-15T06:17:57.660Z,41.64
2023-05-15T06:20:41.413Z,41.70
2023-05-15T06:23:12.456Z,41.62
2023-05-15T06:25:57.169Z,41.41
2023-05-15T06:28:31.883Z,41.56
2023-05-15T06:31:06.491Z,42.08
2023-05-15T06:33:54.021Z,41.36
2023-05-15T06:36:26.243Z,41.17
2023-05-15T06:38:58.388Z,41.04
2023-05-15T06:41:35.372Z,41.17
2023-05-15T06:44:06.811Z,41.17
2023-05-15T06:46:41.685Z,41.12
2023-05-15T06:49:26.689Z,41.81
2023-05-15T06:51:58.858Z,41.22
2023-05-15T06:54:32.620Z,41.22
2023-05-15T06:57:05.218Z,41.30
2023-05-15T06:59:40.072Z,41.26
2023-05-15T07:02:10.395Z,41.25
2023-05-15T07:04:48.619Z,41.26
2023-05-15T07:07:21.111Z,41.20
2023-05-15T07:09:53.598Z,41.22
2023-05-15T07:12:24.363Z,41.25
2023-05-15T07:14:56.016Z,41.26
2023-05-15T07:17:31.584Z,41.32
2023-05-15T07:44:32.394Z,41.64
2023-05-15T07:57:27.997Z,41.19
2023-05-15T08:00:33.679Z,40.85
2023-05-15T08:09:19.932Z,40.74
2023-05-15T08:16:02.748Z,41.94
2023-05-15T08:19:46.219Z,40.94
2023-05-15T08:24:00.503Z,41.03
2023-05-15T08:25:57.481Z,40.20
2023-05-15T08:28:38.092Z,39.92
2023-05-15T08:31:26.550Z,39.66
2023-05-15T08:34:00.797Z,39.58
2023-05-15T08:36:40.667Z,39.54
2023-05-15T08:39:25.399Z,39.46
2023-05-15T08:42:25.110Z,39.47
2023-05-15T08:45:01.746Z,39.38
2023-05-15T08:47:53.017Z,39.21
2023-05-15T08:51:22.145Z,40.10
2023-05-15T08:54:14.452Z,40.05
2023-05-15T08:58:30.560Z,40.06
2023-05-15T09:01:16.878Z,39.40
2023-05-15T09:04:22.015Z,39.25
2023-05-15T09:07:09.931Z,39.22
2023-05-15T09:14:05.706Z,39.42
2023-05-15T09:16:47.700Z,38.97
2023-05-15T09:20:35.169Z,38.94
2023-05-15T09:24:28.327Z,39.60
2023-05-15T09:27:20.954Z,39.18
2023-05-15T09:30:42.528Z,39.36
2023-05-15T09:33:53.862Z,39.09
2023-05-15T09:36:44.480Z,38.74
2023-05-15T09:39:58.691Z,38.77
2023-05-15T09:42:47.904Z,38.79
2023-05-15T09:45:59.233Z,38.76
2023-05-15T09:50:19.099Z,39.04
2023-05-15T10:08:28.195Z,39.54
2023-05-15T10:11:52.343Z,39.27
2023-05-15T10:15:09.121Z,39.04
2023-05-15T10:17:51.981Z,39.05
2023-05-15T10:20:38.510Z,38.96
2023-05-15T10:23:43.646Z,38.91
2023-05-15T10:32:41.615Z,39.30
2023-05-15T10:43:34.457Z,39.45
2023-05-15T10:50:32.281Z,39.47
2023-05-15T11:08:36.463Z,39.76
2023-05-15T11:27:12.319Z,39.95
2023-05-15T11:30:43.087Z,39.93
2023-05-15T11:39:05.569Z,40.03
2023-05-15T11:42:30.187Z,39.70
2023-05-15T11:45:21.350Z,39.45
2023-05-15T11:48:26.407Z,39.53
2023-05-15T11:51:35.021Z,39.98
2023-05-15T11:54:30.889Z,39.50
2023-05-15T11:57:58.231Z,39.71
2023-05-15T12:16:19.311Z,39.93
2023-05-15T12:19:30.647Z,40.24
2023-05-15T12:23:05.443Z,40.49
2023-05-15T12:26:33.215Z,40.56
2023-05-15T12:29:12.116Z,40.43
2023-05-15T12:42:53.970Z,41.06
2023-05-15T12:51:42.508Z,41.15
2023-05-15T12:54:26.214Z,41.01
2023-05-15T12:57:07.252Z,40.88
2023-05-15T13:00:14.507Z,41.36
2023-05-15T13:03:18.171Z,41.40
2023-05-15T13:06:41.879Z,41.61
2023-05-15T13:09:52.878Z,41.08
2023-05-15T13:16:57.250Z,40.96
2023-05-15T13:28:12.965Z,41.72
2023-05-15T13:31:10.014Z,41.84
2023-05-15T13:33:57.767Z,41.58
2023-05-15T13:37:10.072Z,41.69
2023-05-15T13:39:49.497Z,41.67
2023-05-15T13:42:26.577Z,41.82
2023-05-15T13:45:01.145Z,41.80
2023-05-15T13:47:42.838Z,41.88
2023-05-15T13:50:25.159Z,41.97
2023-05-15T13:53:04.804Z,41.97
2023-05-15T13:55:34.658Z,41.93
2023-05-15T13:58:07.005Z,41.97
2023-05-15T14:00:40.348Z,42.07
2023-05-15T14:03:32.738Z,42.12
2023-05-15T14:06:38.229Z,42.38
2023-05-15T14:09:46.042Z,42.56
2023-05-15T14:12:22.575Z,42.50
2023-05-15T14:15:01.957Z,42.30
2023-05-15T14:17:54.098Z,42.27
2023-05-15T14:20:48.938Z,42.35
2023-05-15T14:23:22.330Z,43.85
2023-05-15T14:26:09.745Z,42.85
2023-05-15T14:28:58.689Z,42.58
2023-05-15T14:31:38.883Z,42.54
2023-05-15T14:34:22.437Z,42.57
2023-05-15T14:37:12.712Z,43.05
2023-05-15T14:40:29.173Z,43.30
2023-05-15T14:43:26.672Z,43.16
2023-05-15T14:46:30.006Z,43.45
2023-05-15T14:50:10.356Z,43.54
2023-05-15T14:53:13.525Z,43.24
2023-05-15T14:57:24.238Z,43.37
2023-05-15T15:00:03.419Z,43.13
2023-05-15T15:02:38.499Z,42.94
2023-05-15T15:05:22.061Z,43.35
2023-05-15T15:08:36.247Z,43.54
2023-05-15T15:11:19.220Z,43.46
2023-05-15T15:13:52.467Z,43.48
2023-05-15T15:16:24.209Z,43.56
2023-05-15T15:19:08.203Z,43.73
2023-05-15T15:22:08.405Z,43.51
2023-05-15T15:24:49.379Z,43.96
2023-05-15T15:27:20.534Z,43.96
2023-05-15T15:30:25.688Z,43.93
2023-05-15T15:33:22.201Z,44.25
2023-05-15T15:52:20.691Z,45.68
2023-05-15T15:58:56.609Z,45.42
2023-05-15T16:02:06.599Z,45.62
2023-05-15T16:06:06.422Z,45.96
2023-05-15T16:20:29.693Z,46.90
2023-05-15T16:27:08.548Z,46.20
2023-05-15T16:30:18.647Z,45.90
2023-05-15T16:33:01.860Z,45.95
2023-05-15T16:35:43.125Z,45.99
2023-05-15T16:38:38.245Z,46.25
2023-05-15T16:41:50.941Z,46.32
2023-05-15T16:45:26.981Z,46.67
2023-05-15T16:49:05.931Z,46.74
2023-05-15T16:51:46.081Z,46.53
2023-05-15T16:54:53.795Z,46.47
2023-05-15T16:57:53.595Z,46.85
2023-05-15T17:00:38.834Z,47.19
2023-05-15T17:03:20.301Z,47.28
2023-05-15T17:06:24.433Z,47.41
2023-05-15T17:09:16.142Z,46.99
2023-05-15T17:11:56.879Z,47.27
2023-05-15T17:15:21.433Z,46.99
2023-05-15T17:17:57.266Z,47.12
2023-05-15T17:20:28.210Z,46.84
2023-05-15T17:24:00.873Z,47.54
2023-05-15T17:29:54.755Z,47.59
2023-05-15T17:32:29.732Z,47.38
2023-05-15T17:35:08.722Z,47.31
2023-05-15T17:38:01.262Z,47.30
2023-05-15T17:40:30.802Z,47.35
2023-05-15T17:43:22.141Z,47.40
2023-05-15T17:45:54.554Z,47.33
2023-05-15T17:48:27.050Z,47.31
2023-05-15T17:51:13.462Z,47.47
2023-05-15T17:53:48.472Z,47.15
2023-05-15T17:56:21.985Z,47.08
2023-05-15T17:58:54.136Z,46.86
2023-05-15T18:01:26.814Z,46.88
2023-05-15T18:04:03.359Z,46.68
2023-05-15T18:06:38.748Z,46.61
2023-05-15T18:09:09.583Z,46.56
2023-05-15T18:11:40.950Z,46.64
2023-05-15T18:14:46.333Z,46.69
2023-05-15T18:17:25.019Z,46.97
2023-05-15T18:19:59.111Z,46.97
2023-05-15T18:22:30.855Z,46.85
2023-05-15T18:25:01.771Z,46.95
2023-05-15T18:27:35.351Z,46.90
2023-05-15T18:30:06.556Z,46.81
2023-05-15T18:32:42.056Z,46.89
2023-05-15T18:35:21.248Z,47.07
2023-05-15T18:38:02.707Z,47.47
2023-05-15T18:40:49.965Z,47.16
2023-05-15T18:43:26.457Z,47.01
2023-05-15T18:46:05.503Z,47.52
2023-05-15T18:48:37.027Z,47.17
2023-05-15T18:51:11.207Z,47.12
2023-05-15T18:53:47.713Z,47.20
2023-05-15T18:56:24.305Z,47.28
2023-05-15T18:59:00.225Z,47.62
2023-05-15T19:01:58.959Z,47.94
2023-05-15T19:04:52.079Z,47.96
2023-05-15T19:07:42.104Z,47.85
2023-05-15T19:10:44.725Z,48.05
2023-05-15T19:14:25.220Z,48.19
2023-05-15T19:17:20.396Z,48.31
2023-05-15T19:20:05.147Z,48.34
2023-05-15T19:22:57.126Z,49.93
2023-05-15T19:25:36.111Z,48.68
2023-05-15T19:28:21.485Z,48.26
2023-05-15T19:30:53.312Z,48.21
2023-05-15T19:34:30.896Z,49.98
2023-05-15T19:38:00.810Z,48.85
2023-05-15T19:43:25.740Z,48.24
2023-05-15T19:46:05.733Z,48.08
2023-05-15T19:48:53.133Z,48.12
2023-05-15T19:54:34.249Z,48.34
2023-05-15T19:57:10.718Z,48.35
2023-05-15T19:59:51.058Z,48.20
2023-05-15T20:02:25.224Z,48.19
2023-05-15T20:08:31.776Z,48.70
2023-05-15T20:11:22.278Z,48.51
2023-05-15T20:15:26.649Z,48.82
2023-05-15T20:18:25.432Z,48.70
2023-05-15T20:22:20.749Z,49.02
2023-05-15T20:25:17.001Z,48.61
2023-05-15T20:28:12.843Z,48.78
2023-05-15T20:31:04.998Z,48.78
2023-05-15T20:33:41.602Z,48.65
2023-05-15T20:36:50.110Z,48.30
2023-05-15T20:39:37.973Z,48.47
2023-05-15T20:42:24.970Z,50.17
2023-05-15T20:45:26.910Z,49.38
2023-05-15T20:48:04.489Z,48.64
2023-05-15T20:50:58.077Z,48.61
2023-05-15T20:54:21.194Z,48.90
2023-05-15T20:57:03.340Z,48.83
2023-05-15T20:59:37.652Z,48.48
2023-05-15T21:02:19.096Z,48.38
2023-05-15T21:04:50.754Z,48.34
2023-05-15T21:07:42.356Z,48.36
2023-05-15T21:10:17.422Z,48.52
2023-05-15T21:12:49.995Z,48.53
2023-05-15T21:15:21.008Z,48.62
2023-05-15T21:17:58.585Z,48.72
2023-05-15T21:20:38.697Z,48.63
2023-05-15T21:23:15.349Z,48.73
2023-05-15T21:25:50.082Z,48.76
2023-05-15T21:28:22.657Z,48.66
2023-05-15T21:31:01.945Z,48.72
2023-05-15T21:33:40.638Z,48.75
2023-05-15T21:36:15.250Z,48.66
2023-05-15T21:38:50.854Z,48.72
2023-05-15T21:41:22.837Z,48.80
2023-05-15T21:43:55.670Z,48.80
2023-05-15T21:46:26.317Z,48.84
2023-05-15T21:48:56.587Z,48.81
2023-05-15T21:51:30.095Z,48.83
2023-05-15T21:54:29.218Z,49.24
2023-05-15T21:57:04.609Z,49.13
2023-05-15T21:59:49.627Z,49.14
2023-05-15T22:02:37.888Z,49.17
2023-05-15T22:08:31.675Z,49.14
2023-05-15T22:11:27.263Z,49.55
2023-05-15T22:14:35.061Z,49.03
2023-05-15T22:17:57.724Z,49.34
2023-05-15T22:20:34.588Z,49.48
2023-05-15T22:23:19.252Z,49.59
2023-05-15T22:26:03.208Z,49.60
2023-05-15T22:29:09.816Z,49.78
2023-05-15T22:31:53.132Z,49.55
2023-05-15T22:34:31.443Z,49.47
2023-05-15T22:37:29.107Z,49.57
2023-05-15T22:40:06.566Z,49.64
2023-05-15T22:42:39.282Z,49.50
2023-05-15T22:45:17.298Z,49.38
2023-05-15T22:47:50.464Z,49.34
2023-05-15T22:50:19.372Z,49.13
2023-05-15T22:52:52.831Z,48.81
2023-05-15T22:55:22.778Z,48.77
2023-05-15T22:57:57.924Z,49.00
2023-05-15T23:00:28.760Z,49.29
2023-05-15T23:03:04.600Z,49.32
2023-05-15T23:05:42.527Z,49.38
2023-05-15T23:08:49.106Z,49.60
2023-05-15T23:11:53.329Z,49.51
2023-05-15T23:14:29.386Z,49.30
2023-05-15T23:17:08.394Z,49.20
2023-05-15T23:19:44.809Z,49.14
2023-05-15T23:22:18.899Z,49.04
2023-05-15T23:24:56.926Z,48.99
2023-05-15T23:27:30.300Z,49.08
2023-05-15T23:30:05.307Z,49.13
2023-05-15T23:32:43.252Z,49.01
2023-05-15T23:35:16.322Z,49.00
2023-05-15T23:37:46.721Z,48.93
2023-05-15T23:40:16.180Z,48.87
2023-05-15T23:42:45.407Z,48.72
2023-05-15T23:45:17.397Z,48.71
2023-05-15T23:47:47.470Z,48.73
2023-05-15T23:50:16.923Z,48.74
2023-05-15T23:52:46.328Z,48.70
2023-05-15T23:55:15.696Z,48.69
2023-05-15T23:57:44.640Z,48.71
